Time;durP1;ratioP1;P1;durP2;ratioP2;P2;SDS_P1;SDS_P2;PMS_P1;PMS_P2;Temp;Humidity;BMP_temperature;BMP_pressure;BME280_temperature;BME280_humidity;BME280_pressure;Samples;Min_cycle;Max_cycle;Signal;HPM_P1;HPM_P2
2021/11/20 00:51:25;;;;;;;6.68;1.67;;;9.60;99.90;;;;;;5051467;23;20154;-95
2021/11/20 00:53:52;;;;;;;8.85;2.60;;;9.60;99.90;;;;;;4993932;28;20077;-95
2021/11/20 00:56:20;;;;;;;9.57;2.33;;;9.70;99.90;;;;;;4971031;28;20122;-95
2021/11/20 00:58:51;;;;;;;7.28;2.00;;;9.70;99.90;;;;;;4993528;28;20031;-95
2021/11/20 01:09:49;;;;;;;13.00;2.20;;;9.70;99.90;;;;;;5379652;23;20036;-96
2021/11/20 01:12:44;;;;;;;6.10;2.78;;;9.70;99.90;;;;;;5082366;23;20061;-96
2021/11/20 01:15:37;;;;;;;8.20;2.53;;;9.70;99.90;;;;;;4990159;28;20027;-95
2021/11/20 01:18:06;;;;;;;12.07;3.42;;;9.70;99.90;;;;;;4970488;28;20033;-96
2021/11/20 01:20:32;;;;;;;11.50;3.20;;;9.70;99.90;;;;;;4993624;28;20026;-96
2021/11/20 01:23:12;;;;;;;6.75;3.47;;;9.70;99.90;;;;;;4993970;28;20126;-95
2021/11/20 01:25:39;;;;;;;8.73;3.70;;;9.70;99.90;;;;;;4991829;28;20306;-96
2021/11/20 01:28:12;;;;;;;9.02;3.40;;;9.70;99.90;;;;;;4988619;28;20041;-96
2021/11/20 01:30:44;;;;;;;11.45;2.88;;;9.70;99.90;;;;;;4990459;28;20038;-96
2021/11/20 01:33:10;;;;;;;12.32;3.20;;;9.70;99.90;;;;;;4988948;28;20042;-95
2021/11/20 01:38:18;;;;;;;10.52;3.22;;;9.70;99.90;;;;;;5623493;23;20054;-95
2021/11/20 01:40:45;;;;;;;6.43;2.60;;;9.70;99.90;;;;;;4996333;28;20073;-95
2021/11/20 02:05:11;;;;;;;8.82;3.17;;;9.70;99.90;;;;;;5323283;23;20057;-95
2021/11/20 02:13:14;;;;;;;6.22;2.97;;;9.80;99.90;;;;;;5270145;23;20035;-95
2021/11/20 02:15:48;;;;;;;7.95;2.72;;;9.70;99.90;;;;;;4981904;28;20030;-95
2021/11/20 02:23:37;;;;;;;6.28;3.05;;;9.70;99.90;;;;;;5150482;23;20053;-94
2021/11/20 02:26:08;;;;;;;6.88;2.38;;;9.80;99.90;;;;;;4997284;28;20034;-95
2021/11/20 02:28:37;;;;;;;8.73;2.00;;;9.70;99.90;;;;;;4995998;28;20050;-96
2021/11/20 02:31:09;;;;;;;7.30;1.75;;;9.70;99.90;;;;;;4999563;28;20027;-94
2021/11/20 02:33:39;;;;;;;5.03;1.88;;;9.70;99.90;;;;;;4996369;28;20047;-95
2021/11/20 02:36:16;;;;;;;5.60;1.80;;;9.70;99.90;;;;;;4998522;28;20038;-96
2021/11/20 02:39:13;;;;;;;12.82;2.25;;;9.60;99.90;;;;;;5491149;23;20047;-95
2021/11/20 02:41:39;;;;;;;8.10;2.28;;;9.60;99.90;;;;;;4999100;28;20035;-96
2021/11/20 02:44:10;;;;;;;6.45;1.77;;;9.60;99.90;;;;;;4997096;28;20047;-96
2021/11/20 02:46:41;;;;;;;;;;;9.60;99.90;;;;;;4974359;28;20049;-95
2021/11/20 02:52:15;;;;;;;8.38;1.88;;;9.50;99.90;;;;;;4996953;28;20090;-95
2021/11/20 02:54:44;;;;;;;8.68;1.73;;;9.50;99.90;;;;;;4994519;28;20051;-96
2021/11/20 02:57:28;;;;;;;5.30;1.60;;;9.50;99.90;;;;;;4996659;28;20010;-96
2021/11/20 02:59:58;;;;;;;8.02;1.98;;;9.50;99.90;;;;;;4996227;28;20042;-95
2021/11/20 03:02:25;;;;;;;5.53;1.85;;;9.50;99.90;;;;;;4990097;28;20266;-96
2021/11/20 03:04:55;;;;;;;5.90;1.80;;;9.50;99.90;;;;;;4991897;28;20038;-95
2021/11/20 03:07:52;;;;;;;4.20;1.42;;;9.50;99.90;;;;;;4998299;28;20034;-95
2021/11/20 03:10:33;;;;;;;6.57;1.80;;;9.50;99.90;;;;;;4996254;28;20023;-96
2021/11/20 03:13:03;;;;;;;8.73;1.65;;;9.50;99.90;;;;;;4992293;28;20011;-96
2021/11/20 03:15:37;;;;;;;10.50;2.20;;;9.50;99.90;;;;;;4996556;28;20033;-95
2021/11/20 03:18:06;;;;;;;6.57;1.85;;;9.50;99.90;;;;;;4997393;28;20089;-95
2021/11/20 03:20:52;;;;;;;4.50;1.63;;;9.40;99.90;;;;;;4964911;28;20054;-96
2021/11/20 03:43:31;;;;;;;12.00;2.17;;;9.40;99.90;;;;;;1371263;23;20306;-90
2021/11/20 03:45:58;;;;;;;5.63;2.30;;;9.40;99.90;;;;;;4969229;28;20015;-96
2021/11/20 03:48:24;;;;;;;6.75;1.95;;;9.40;99.90;;;;;;4952261;29;20031;-95
2021/11/20 03:50:51;;;;;;;13.60;3.40;;;9.40;99.90;;;;;;4954142;29;20058;-96
2021/11/20 03:53:23;;;;;;;7.80;1.83;;;9.40;99.90;;;;;;4953445;29;20047;-95
2021/11/20 03:55:57;;;;;;;7.15;2.03;;;9.40;99.90;;;;;;4955698;29;20031;-96
2021/11/20 03:58:27;;;;;;;14.02;2.80;;;9.40;99.90;;;;;;4967546;29;20027;-95
2021/11/20 04:01:03;;;;;;;6.68;2.03;;;9.40;99.90;;;;;;4952641;29;20052;-95
2021/11/20 04:03:29;;;;;;;8.90;1.88;;;9.40;99.90;;;;;;4949992;29;20023;-95
2021/11/20 04:05:59;;;;;;;7.22;1.98;;;9.40;99.90;;;;;;4953152;29;20024;-96
2021/11/20 04:08:30;;;;;;;6.10;2.35;;;9.40;99.90;;;;;;4953301;29;20500;-95
2021/11/20 04:11:04;;;;;;;3.17;1.55;;;9.40;99.90;;;;;;4954765;29;20055;-95
2021/11/20 04:13:30;;;;;;;5.00;1.90;;;9.40;99.90;;;;;;4950718;29;20050;-94
2021/11/20 04:15:58;;;;;;;4.75;2.28;;;9.40;99.90;;;;;;4949842;29;20024;-95
2021/11/20 04:18:31;;;;;;;6.82;1.77;;;9.40;99.90;;;;;;4954287;29;20023;-95
2021/11/20 04:20:59;;;;;;;9.50;2.08;;;9.40;99.90;;;;;;4956357;29;20039;-96
2021/11/20 04:23:38;;;;;;;6.85;1.80;;;9.40;99.90;;;;;;4955626;29;20035;-95
2021/11/20 04:26:32;;;;;;;8.52;2.35;;;9.40;99.90;;;;;;4954131;29;20087;-95
2021/11/20 04:29:00;;;;;;;9.88;2.75;;;9.40;99.90;;;;;;4947751;29;20036;-95
2021/11/20 04:31:28;;;;;;;9.10;2.00;;;9.40;99.90;;;;;;4955458;29;20012;-95
2021/11/20 04:33:57;;;;;;;5.20;1.70;;;9.50;99.90;;;;;;4954305;29;20063;-95
2021/11/20 04:38:59;;;;;;;7.93;2.03;;;9.50;99.90;;;;;;5166775;23;20535;-95
2021/11/20 04:41:26;;;;;;;4.60;1.70;;;9.50;99.90;;;;;;4994278;28;20050;-96
2021/11/20 04:43:56;;;;;;;8.63;2.10;;;9.50;99.90;;;;;;4993358;28;20029;-95
2021/11/20 04:46:24;;;;;;;6.22;1.75;;;9.50;99.90;;;;;;4995808;28;20015;-95
2021/11/20 04:48:54;;;;;;;10.00;1.75;;;9.40;99.90;;;;;;4993812;28;20041;-96
2021/11/20 04:51:26;;;;;;;8.40;2.13;;;9.50;99.90;;;;;;4995882;28;20050;-95
2021/11/20 04:53:53;;;;;;;6.18;1.98;;;9.50;99.90;;;;;;4977464;28;20441;-95
2021/11/20 04:56:23;;;;;;;9.45;2.17;;;9.40;99.90;;;;;;4992659;28;20019;-94
2021/11/20 04:58:50;;;;;;;4.65;1.63;;;9.50;99.90;;;;;;4990155;28;20038;-94
2021/11/20 05:01:25;;;;;;;6.50;1.83;;;9.40;99.90;;;;;;4983781;28;20058;-95
2021/11/20 05:03:53;;;;;;;7.03;1.80;;;9.50;99.90;;;;;;5003248;28;20022;-94
2021/11/20 05:06:21;;;;;;;4.57;1.70;;;9.50;99.90;;;;;;5008792;28;20031;-96
2021/11/20 05:08:53;;;;;;;6.15;1.88;;;9.40;99.90;;;;;;5009809;28;20030;-95
2021/11/20 05:11:22;;;;;;;5.07;1.50;;;9.50;99.90;;;;;;5012910;28;20041;-96
2021/11/20 05:13:49;;;;;;;8.43;1.30;;;9.50;99.90;;;;;;4992310;28;20042;-96
2021/11/20 05:16:18;;;;;;;7.03;1.75;;;9.50;99.90;;;;;;4989411;28;20054;-95
2021/11/20 05:18:44;;;;;;;5.72;1.63;;;9.50;99.90;;;;;;4986904;28;20021;-95
2021/11/20 05:21:13;;;;;;;5.22;1.40;;;9.50;99.90;;;;;;4990492;28;20150;-95
2021/11/20 05:23:42;;;;;;;2.78;1.20;;;9.50;99.90;;;;;;4984048;28;20022;-95
2021/11/20 05:26:11;;;;;;;6.53;1.38;;;9.40;99.90;;;;;;4983006;28;20098;-94
2021/11/20 05:28:42;;;;;;;3.80;1.45;;;9.50;99.90;;;;;;4984508;28;20019;-95
2021/11/20 05:31:08;;;;;;;3.90;1.20;;;9.50;99.90;;;;;;4985371;28;20023;-94
2021/11/20 05:33:51;;;;;;;7.78;1.35;;;9.50;99.90;;;;;;4989133;28;20045;-96
2021/11/20 05:36:20;;;;;;;6.38;1.30;;;9.50;99.90;;;;;;4973349;28;20034;-96
2021/11/20 05:38:49;;;;;;;3.50;1.45;;;9.40;99.90;;;;;;4993636;28;20054;-96
2021/11/20 05:41:20;;;;;;;3.55;1.02;;;9.40;99.90;;;;;;4996636;28;20046;-95
2021/11/20 05:43:49;;;;;;;4.90;1.33;;;9.40;99.90;;;;;;4996385;28;20078;-95
2021/11/20 05:54:42;;;;;;;8.50;1.75;;;9.40;99.90;;;;;;5458161;23;20118;-95
2021/11/20 05:57:09;;;;;;;6.13;1.67;;;9.40;99.90;;;;;;4958372;29;20027;-95
2021/11/20 05:59:38;;;;;;;9.68;1.80;;;9.40;99.90;;;;;;4959238;29;20030;-96
2021/11/20 06:02:08;;;;;;;5.30;1.33;;;9.40;99.90;;;;;;4961353;29;20397;-94
2021/11/20 06:04:39;;;;;;;7.35;1.40;;;9.30;99.90;;;;;;4964758;28;20055;-95
2021/11/20 06:07:05;;;;;;;4.30;1.70;;;9.30;99.90;;;;;;4964367;28;20019;-94
2021/11/20 06:09:36;;;;;;;6.53;1.50;;;9.30;99.90;;;;;;4972099;28;20014;-94
2021/11/20 06:12:15;;;;;;;4.82;1.58;;;9.30;99.90;;;;;;4983804;28;20019;-93
2021/11/20 06:14:43;;;;;;;5.65;1.45;;;9.30;99.90;;;;;;4976635;28;20034;-93
2021/11/20 06:17:11;;;;;;;7.82;1.67;;;9.20;99.90;;;;;;4989721;28;20437;-96
2021/11/20 06:19:37;;;;;;;4.25;1.92;;;9.20;99.90;;;;;;4976383;28;20083;-95
2021/11/20 06:22:09;;;;;;;8.30;1.88;;;9.20;99.90;;;;;;4976326;28;20019;-94
2021/11/20 06:24:34;;;;;;;6.55;2.17;;;9.10;99.90;;;;;;4966485;28;20039;-94
2021/11/20 06:27:03;;;;;;;5.75;1.80;;;9.10;99.90;;;;;;4975005;28;20076;-95
2021/11/20 06:29:29;;;;;;;7.22;2.20;;;9.10;99.90;;;;;;4973743;28;20030;-95
2021/11/20 06:31:55;;;;;;;6.65;1.63;;;9.00;99.90;;;;;;4961961;28;20031;-96
2021/11/20 06:34:24;;;;;;;2.47;1.38;;;9.00;99.90;;;;;;4965131;28;20113;-95
2021/11/20 06:36:50;;;;;;;4.90;1.30;;;9.00;99.90;;;;;;4957276;28;20015;-95
2021/11/20 06:39:18;;;;;;;7.35;2.03;;;9.00;99.90;;;;;;4961250;28;20033;-95
2021/11/20 06:44:20;;;;;;;10.25;1.77;;;9.00;99.90;;;;;;5542412;23;20069;-94
2021/11/20 06:46:49;;;;;;;8.15;1.60;;;9.00;99.90;;;;;;5038065;28;20101;-95
2021/11/20 06:49:15;;;;;;;5.75;1.80;;;8.90;99.90;;;;;;5038000;28;20034;-95
2021/11/20 06:51:41;;;;;;;9.50;1.85;;;8.90;99.90;;;;;;5035761;28;20041;-95
2021/11/20 06:54:12;;;;;;;6.70;1.85;;;8.90;99.90;;;;;;5052097;28;20022;-94
2021/11/20 06:56:46;;;;;;;;;;;8.90;99.90;;;;;;5053844;28;20025;-95
2021/11/20 07:02:34;;;;;;;4.22;2.53;;;8.90;99.90;;;;;;5046353;28;20034;-95
2021/11/20 07:05:02;;;;;;;3.33;1.90;;;8.80;99.90;;;;;;5021014;28;20081;-94
2021/11/20 07:07:39;;;;;;;4.50;1.80;;;8.80;99.90;;;;;;5029328;28;20037;-95
2021/11/20 07:10:08;;;;;;;6.90;2.60;;;8.80;99.90;;;;;;5025079;28;20029;-94
2021/11/20 07:12:33;;;;;;;4.13;1.90;;;8.90;99.90;;;;;;5022808;28;20040;-95
2021/11/20 07:15:10;;;;;;;4.88;1.90;;;8.80;99.90;;;;;;5037837;28;20050;-94
2021/11/20 07:17:40;;;;;;;4.90;1.88;;;8.90;99.90;;;;;;5015770;28;20046;-96
2021/11/20 07:20:08;;;;;;;2.05;1.20;;;8.90;99.90;;;;;;5054385;28;20629;-95
2021/11/20 07:22:34;;;;;;;7.70;1.67;;;8.90;99.90;;;;;;5047220;28;20017;-95
2021/11/20 07:25:01;;;;;;;5.85;1.45;;;8.90;99.90;;;;;;5011868;28;20019;-95
2021/11/20 07:27:30;;;;;;;6.80;1.95;;;8.90;99.90;;;;;;5019503;28;20018;-94
2021/11/20 07:29:56;;;;;;;8.10;1.67;;;8.90;99.90;;;;;;5021299;28;20021;-95
2021/11/20 07:32:26;;;;;;;5.95;1.85;;;8.90;99.90;;;;;;5016625;28;20093;-95
2021/11/20 07:34:56;;;;;;;4.35;1.90;;;8.90;99.90;;;;;;5013717;28;20019;-94
2021/11/20 07:37:34;;;;;;;4.22;2.00;;;9.00;99.90;;;;;;5020576;28;20499;-95
2021/11/20 07:40:01;;;;;;;4.57;1.40;;;9.00;99.90;;;;;;5012947;28;20038;-93
2021/11/20 07:42:27;;;;;;;3.53;1.17;;;9.00;99.90;;;;;;5021672;28;20023;-94
2021/11/20 07:45:02;;;;;;;5.18;1.38;;;9.00;99.90;;;;;;5043488;28;20030;-95
2021/11/20 07:47:50;;;;;;;1.52;0.90;;;9.10;99.90;;;;;;5036335;28;20029;-96
2021/11/20 07:50:21;;;;;;;2.45;1.48;;;9.10;99.90;;;;;;5020484;28;20027;-95
2021/11/20 07:52:47;;;;;;;;;;;9.10;99.90;;;;;;5037798;28;20030;-95
2021/11/20 07:55:21;;;;;;;4.95;1.70;;;9.10;99.90;;;;;;5032576;28;19890;-96
2021/11/20 07:58:02;;;;;;;5.93;1.33;;;9.10;99.90;;;;;;5028102;28;20041;-95
2021/11/20 08:00:38;;;;;;;3.58;1.00;;;9.10;99.90;;;;;;5013738;28;20050;-94
2021/11/20 08:03:19;;;;;;;4.18;0.90;;;9.10;99.90;;;;;;5019768;28;20033;-95
2021/11/20 08:05:48;;;;;;;3.50;1.00;;;9.20;99.90;;;;;;5026364;23;20043;-95
2021/11/20 08:08:20;;;;;;;5.53;0.90;;;9.20;99.90;;;;;;4960372;29;20099;-94
2021/11/20 08:10:56;;;;;;;4.53;0.93;;;9.20;99.90;;;;;;4943998;29;20036;-95
2021/11/20 08:13:24;;;;;;;2.25;0.95;;;9.20;99.90;;;;;;4943829;29;20107;-95
2021/11/20 08:15:52;;;;;;;3.00;1.00;;;9.20;99.90;;;;;;4943076;29;20027;-94
2021/11/20 08:18:24;;;;;;;1.85;0.90;;;9.20;99.90;;;;;;4938609;29;20028;-93
2021/11/20 08:20:50;;;;;;;3.33;1.00;;;9.20;99.90;;;;;;4935575;29;20046;-95
2021/11/20 08:23:16;;;;;;;5.68;1.20;;;9.20;99.90;;;;;;4942965;29;20042;-96
2021/11/20 08:25:44;;;;;;;2.17;1.02;;;9.30;99.90;;;;;;4947472;29;20039;-96
2021/11/20 08:28:15;;;;;;;2.25;0.68;;;9.30;99.90;;;;;;4963611;29;20026;-95
2021/11/20 08:30:43;;;;;;;2.53;1.13;;;9.30;99.90;;;;;;4931940;29;20088;-94
2021/11/20 08:33:19;;;;;;;6.05;1.05;;;9.30;99.90;;;;;;4949104;29;20030;-94
2021/11/20 08:35:45;;;;;;;2.50;1.25;;;9.30;99.90;;;;;;4940076;28;20030;-95
2021/11/20 08:38:13;;;;;;;5.65;1.60;;;9.30;99.90;;;;;;4946710;28;20093;-94
2021/11/20 08:40:41;;;;;;;4.22;1.30;;;9.30;99.90;;;;;;4946933;29;20031;-94
2021/11/20 08:43:07;;;;;;;2.55;1.10;;;9.30;99.90;;;;;;4949078;28;20103;-95
2021/11/20 08:45:37;;;;;;;3.67;1.13;;;9.30;99.90;;;;;;4942646;28;20035;-96
2021/11/20 08:48:03;;;;;;;3.03;0.93;;;9.30;99.90;;;;;;4950035;28;20031;-96
2021/11/20 08:50:36;;;;;;;7.18;1.50;;;9.40;99.90;;;;;;4949945;28;20049;-95
2021/11/20 08:53:02;;;;;;;7.47;1.00;;;9.40;99.90;;;;;;4948710;29;20023;-95
2021/11/20 08:55:29;;;;;;;1.77;1.08;;;9.40;99.90;;;;;;4952295;28;20019;-95
2021/11/20 08:57:54;;;;;;;2.67;1.23;;;9.40;99.90;;;;;;4946878;29;20501;-95
2021/11/20 09:00:34;;;;;;;3.38;1.10;;;9.40;99.90;;;;;;4948117;28;20039;-95
2021/11/20 09:03:25;;;;;;;1.73;0.80;;;9.40;99.90;;;;;;4950246;28;20033;-95
2021/11/20 09:05:53;;;;;;;2.30;0.90;;;9.50;99.90;;;;;;4944398;28;20039;-95
2021/11/20 09:08:35;;;;;;;3.70;1.65;;;9.40;99.90;;;;;;4950113;28;20060;-95
2021/11/20 09:11:04;;;;;;;2.25;1.02;;;9.50;99.90;;;;;;4946100;28;20192;-95
2021/11/20 09:13:37;;;;;;;2.30;1.10;;;9.50;99.90;;;;;;4936728;28;20114;-95
2021/11/20 09:16:07;;;;;;;2.22;1.00;;;9.50;99.90;;;;;;4939596;28;20054;-94
2021/11/20 09:18:35;;;;;;;4.35;1.00;;;9.60;99.90;;;;;;4945969;28;20091;-95
2021/11/20 09:21:02;;;;;;;1.90;0.80;;;9.60;99.90;;;;;;4946997;28;20043;-95
2021/11/20 09:23:28;;;;;;;4.07;1.08;;;9.60;99.90;;;;;;4953560;28;20034;-94
2021/11/20 09:25:55;;;;;;;2.25;1.10;;;9.70;99.90;;;;;;4947463;28;20091;-96
2021/11/20 09:28:23;;;;;;;2.13;0.70;;;9.70;99.90;;;;;;4949620;28;20029;-94
2021/11/20 09:30:52;;;;;;;5.25;0.98;;;9.80;99.90;;;;;;4947977;28;20031;-95
2021/11/20 09:33:22;;;;;;;3.38;0.90;;;9.80;99.90;;;;;;4949913;28;20022;-96
2021/11/20 09:35:49;;;;;;;1.50;0.98;;;9.80;99.90;;;;;;4946539;28;20034;-95
2021/11/20 09:38:17;;;;;;;1.73;0.90;;;9.90;99.90;;;;;;4950313;28;20469;-95
2021/11/20 09:40:49;;;;;;;1.83;0.93;;;9.90;99.90;;;;;;4951795;28;20070;-94
2021/11/20 09:43:23;;;;;;;2.47;0.93;;;9.90;99.90;;;;;;4950585;28;20026;-94
2021/11/20 09:46:15;;;;;;;4.60;1.20;;;9.90;99.90;;;;;;4945295;28;20059;-95
2021/11/20 09:48:44;;;;;;;1.80;1.10;;;9.90;99.90;;;;;;4946251;28;20024;-94
2021/11/20 09:51:24;;;;;;;1.77;0.90;;;9.90;99.90;;;;;;4962556;28;20036;-95
2021/11/20 09:53:51;;;;;;;3.55;1.15;;;9.90;99.90;;;;;;4946081;29;20015;-94
2021/11/20 09:56:24;;;;;;;3.80;1.00;;;9.90;99.90;;;;;;4966460;28;20027;-95
2021/11/20 09:58:54;;;;;;;1.98;0.93;;;9.90;99.90;;;;;;4964350;28;20026;-94
2021/11/20 10:01:58;;;;;;;1.95;1.00;;;9.90;99.90;;;;;;4963507;28;20043;-94
2021/11/20 10:04:52;;;;;;;2.92;0.77;;;10.00;99.90;;;;;;4930636;29;20031;-94
2021/11/20 10:07:34;;;;;;;5.57;1.20;;;10.00;99.90;;;;;;4924505;29;20052;-94
2021/11/20 10:10:26;;;;;;;2.15;1.00;;;10.10;99.90;;;;;;4916539;29;20028;-96
2021/11/20 10:13:11;;;;;;;0.70;0.70;;;10.10;99.90;;;;;;4913127;29;20084;-94
2021/11/20 10:16:07;;;;;;;3.85;0.85;;;10.20;99.90;;;;;;4889293;29;20029;-95
2021/11/20 10:18:46;;;;;;;1.20;0.93;;;10.30;99.90;;;;;;4900390;29;20446;-94
2021/11/20 10:21:28;;;;;;;2.75;1.27;;;10.40;99.90;;;;;;4915364;29;20041;-94
2021/11/20 10:23:59;;;;;;;2.72;1.13;;;10.50;99.90;;;;;;4916040;29;20025;-94
2021/11/20 10:26:47;;;;;;;9.27;0.93;;;10.60;99.90;;;;;;4918848;29;20117;-95
2021/11/20 10:29:27;;;;;;;2.25;0.68;;;10.80;99.90;;;;;;4900847;29;20056;-95
2021/11/20 10:32:11;;;;;;;4.90;0.80;;;11.00;99.90;;;;;;4915995;29;20024;-96
2021/11/20 10:34:45;;;;;;;1.80;0.52;;;11.50;99.90;;;;;;4922020;29;20049;-96
2021/11/20 10:37:24;;;;;;;2.15;0.75;;;11.90;99.90;;;;;;4926042;29;20028;-95
2021/11/20 10:40:06;;;;;;;2.35;0.60;;;12.30;99.90;;;;;;4949749;28;20058;-95
2021/11/20 10:42:40;;;;;;;2.00;0.70;;;12.70;98.90;;;;;;4948230;29;20039;-95
2021/11/20 10:45:09;;;;;;;1.08;0.70;;;13.10;98.00;;;;;;4945226;29;20126;-95
2021/11/20 10:47:39;;;;;;;1.85;0.60;;;13.50;96.20;;;;;;4943272;29;20034;-94
2021/11/20 10:50:34;;;;;;;1.42;0.50;;;13.70;94.30;;;;;;4942715;29;20509;-95
2021/11/20 10:53:38;;;;;;;3.25;0.60;;;13.90;92.80;;;;;;4943895;29;20036;-95
2021/11/20 10:56:37;;;;;;;1.77;0.50;;;13.90;91.70;;;;;;4945398;29;20105;-94
2021/11/20 10:59:23;;;;;;;1.75;0.60;;;14.10;91.40;;;;;;4940725;29;20043;-95
2021/11/20 11:02:27;;;;;;;2.85;0.60;;;14.30;90.00;;;;;;4953293;29;20035;-94
2021/11/20 11:05:16;;;;;;;4.53;1.23;;;14.40;89.50;;;;;;4901044;29;20025;-95
2021/11/20 11:08:00;;;;;;;0.73;0.40;;;14.60;88.00;;;;;;4914714;29;20424;-94
2021/11/20 11:10:45;;;;;;;4.40;0.85;;;14.90;88.60;;;;;;4897223;29;20072;-93
2021/11/20 11:13:23;;;;;;;2.75;0.65;;;15.20;87.40;;;;;;4906306;29;20033;-94
2021/11/20 11:16:00;;;;;;;4.35;0.80;;;15.30;85.50;;;;;;4908816;29;20050;-93
2021/11/20 11:18:38;;;;;;;3.92;0.82;;;15.40;84.50;;;;;;4886174;29;20053;-95
2021/11/20 11:21:40;;;;;;;1.67;0.73;;;15.40;83.90;;;;;;4897763;29;20049;-95
2021/11/20 11:24:47;;;;;;;4.05;0.82;;;15.70;83.40;;;;;;4898187;29;20029;-94
2021/11/20 11:27:37;;;;;;;2.72;0.60;;;16.00;82.60;;;;;;4866332;29;20053;-94
2021/11/20 11:30:23;;;;;;;2.47;0.60;;;16.20;80.90;;;;;;4853589;29;20037;-94
2021/11/20 11:32:49;;;;;;;1.40;0.70;;;16.30;79.60;;;;;;4882000;29;20052;-95
2021/11/20 11:35:20;;;;;;;3.50;0.60;;;16.40;79.20;;;;;;4897441;29;20033;-93
2021/11/20 11:38:07;;;;;;;5.68;1.08;;;16.50;78.10;;;;;;4900516;29;20033;-93
2021/11/20 11:41:07;;;;;;;1.98;0.80;;;16.50;77.00;;;;;;4896421;29;20199;-95
2021/11/20 11:43:51;;;;;;;1.88;0.68;;;16.60;76.60;;;;;;4944919;29;20119;-93
2021/11/20 11:46:25;;;;;;;2.55;0.80;;;16.80;75.70;;;;;;4944175;28;20037;-94
2021/11/20 11:49:10;;;;;;;0.88;0.65;;;17.00;75.30;;;;;;4936441;28;20066;-94
2021/11/20 11:52:00;;;;;;;2.08;0.77;;;17.10;74.00;;;;;;4939024;29;20448;-95
2021/11/20 11:54:34;;;;;;;2.92;0.95;;;17.00;73.30;;;;;;4939489;29;20051;-95
2021/11/20 11:57:12;;;;;;;4.40;1.10;;;16.70;73.00;;;;;;4928070;29;20485;-94
2021/11/20 12:00:24;;;;;;;2.05;0.90;;;16.40;74.80;;;;;;4947181;29;20034;-94
2021/11/20 12:02:57;;;;;;;2.70;0.93;;;16.30;74.50;;;;;;4932853;29;20489;-95
2021/11/20 12:05:33;;;;;;;3.05;1.30;;;16.20;74.70;;;;;;4941140;29;20276;-95
2021/11/20 12:08:07;;;;;;;1.30;1.20;;;16.30;75.00;;;;;;4950884;29;20496;-93
2021/11/20 12:10:53;;;;;;;1.90;1.60;;;16.10;74.90;;;;;;4954455;28;20106;-94
2021/11/20 12:13:44;;;;;;;2.38;1.85;;;15.80;75.10;;;;;;4953828;29;20086;-94
2021/11/20 12:16:12;;;;;;;4.82;1.88;;;15.50;76.20;;;;;;4937185;29;20051;-94
2021/11/20 12:18:41;;;;;;;8.48;1.88;;;15.10;76.70;;;;;;4954206;29;20031;-94
2021/11/20 12:21:20;;;;;;;3.22;1.63;;;14.90;77.80;;;;;;4955261;29;20519;-95
2021/11/20 12:23:53;;;;;;;2.60;2.00;;;14.60;78.40;;;;;;4954063;29;20042;-94
2021/11/20 12:26:36;;;;;;;3.88;2.53;;;14.40;79.40;;;;;;4938758;29;20031;-95
2021/11/20 12:29:21;;;;;;;3.33;2.58;;;14.10;80.20;;;;;;4937446;29;20039;-95
2021/11/20 12:32:25;;;;;;;5.38;2.55;;;14.10;80.90;;;;;;4936661;29;20089;-95
2021/11/20 12:35:14;;;;;;;3.13;1.90;;;14.10;81.30;;;;;;4956877;28;20051;-96
2021/11/20 12:37:48;;;;;;;6.05;2.20;;;14.20;81.10;;;;;;4958872;28;20036;-95
2021/11/20 12:40:32;;;;;;;2.13;1.88;;;14.20;80.90;;;;;;4961171;28;20061;-95
2021/11/20 12:43:09;;;;;;;3.55;2.00;;;14.20;81.00;;;;;;4947650;28;20031;-94
2021/11/20 12:45:42;;;;;;;2.33;1.60;;;14.00;81.20;;;;;;4962083;28;20575;-94
2021/11/20 12:48:33;;;;;;;3.25;1.65;;;13.90;81.50;;;;;;4962548;28;20515;-94
2021/11/20 12:51:04;;;;;;;4.65;1.90;;;13.70;82.00;;;;;;4962362;28;20020;-94
2021/11/20 12:53:36;;;;;;;4.63;1.85;;;13.50;82.80;;;;;;4947526;29;20050;-96
2021/11/20 12:56:17;;;;;;;3.95;1.83;;;13.30;83.20;;;;;;4946985;29;20019;-95
2021/11/20 12:58:49;;;;;;;2.83;1.48;;;13.20;84.20;;;;;;4945493;29;20031;-94
2021/11/20 13:01:19;;;;;;;3.17;1.95;;;13.10;84.80;;;;;;4941244;29;20047;-95
2021/11/20 13:03:48;;;;;;;6.45;2.08;;;12.90;85.40;;;;;;4940148;29;20390;-95
2021/11/20 13:06:28;;;;;;;2.63;1.60;;;12.80;86.00;;;;;;4939841;29;20126;-94
2021/11/20 13:09:06;;;;;;;2.75;1.40;;;12.80;86.60;;;;;;4953472;28;20035;-94
2021/11/20 13:11:46;;;;;;;4.72;2.67;;;12.80;87.20;;;;;;4937691;29;20031;-95
2021/11/20 13:14:47;;;;;;;3.95;1.70;;;12.80;87.60;;;;;;4954442;29;20027;-94
2021/11/20 13:17:18;;;;;;;2.45;1.55;;;12.70;88.10;;;;;;4936582;29;20023;-94
2021/11/20 13:19:53;;;;;;;4.43;1.60;;;12.60;88.50;;;;;;4937917;28;20499;-95
2021/11/20 13:22:24;;;;;;;4.25;2.17;;;12.60;89.00;;;;;;4941126;29;20067;-96
2021/11/20 13:24:57;;;;;;;3.97;1.67;;;12.50;89.40;;;;;;4935047;29;20127;-95
2021/11/20 13:27:38;;;;;;;3.20;1.30;;;12.40;89.90;;;;;;4948244;28;20027;-96
2021/11/20 13:30:10;;;;;;;4.13;2.67;;;12.30;90.30;;;;;;4948747;28;20022;-95
2021/11/20 13:32:37;;;;;;;2.83;1.45;;;12.30;90.50;;;;;;4937783;29;20496;-96
2021/11/20 13:35:04;;;;;;;3.83;1.70;;;12.30;90.70;;;;;;4927292;29;20046;-95
2021/11/20 13:37:35;;;;;;;5.38;1.77;;;12.20;90.90;;;;;;4936755;29;20035;-96
2021/11/20 13:40:01;;;;;;;2.88;1.67;;;12.20;91.10;;;;;;4943411;29;20043;-95
2021/11/20 13:42:39;;;;;;;3.88;1.92;;;12.10;91.20;;;;;;4955366;29;20039;-95
2021/11/20 13:45:11;;;;;;;6.43;1.88;;;12.10;91.40;;;;;;4949860;29;20058;-96
2021/11/20 13:47:45;;;;;;;6.07;1.70;;;12.00;91.70;;;;;;4946654;29;20028;-95
2021/11/20 13:50:16;;;;;;;4.20;1.75;;;12.00;91.90;;;;;;4953866;29;20019;-95
2021/11/20 13:52:56;;;;;;;4.07;1.60;;;11.90;92.10;;;;;;4945512;29;20023;-96
2021/11/20 13:55:29;;;;;;;4.45;1.63;;;11.90;92.30;;;;;;4951663;29;20028;-96
2021/11/20 13:58:39;;;;;;;2.63;1.55;;;11.90;92.50;;;;;;4922742;28;20057;-96
2021/11/20 14:01:21;;;;;;;5.05;1.95;;;11.80;92.80;;;;;;4958411;29;20048;-96
2021/11/20 14:06:46;;;;;;;3.15;1.63;;;11.70;93.40;;;;;;5031983;23;20071;-95
2021/11/20 14:09:20;;;;;;;2.83;1.40;;;11.60;93.60;;;;;;4949990;29;20032;-96
2021/11/20 14:12:15;;;;;;;3.15;1.65;;;11.60;93.80;;;;;;4947281;29;20122;-94
2021/11/20 14:14:48;;;;;;;1.65;1.52;;;11.60;94.20;;;;;;4944721;29;20035;-96
2021/11/20 14:17:18;;;;;;;3.30;1.67;;;11.50;94.40;;;;;;4955643;29;20027;-95
2021/11/20 14:19:50;;;;;;;;;;;11.50;94.70;;;;;;4931657;29;20038;-96
2021/11/20 14:22:27;;;;;;;3.70;1.60;;;11.40;94.90;;;;;;4962628;29;19927;-96
2021/11/20 14:24:55;;;;;;;3.83;1.67;;;11.40;95.10;;;;;;4944550;29;20084;-96
2021/11/20 14:30:17;;;;;;;2.88;1.30;;;11.40;95.50;;;;;;4940421;29;20050;-95
2021/11/20 14:32:44;;;;;;;8.35;1.45;;;11.30;95.80;;;;;;4942011;29;20094;-96
2021/11/20 14:35:11;;;;;;;4.30;1.73;;;11.30;96.00;;;;;;4940094;29;20024;-96
2021/11/20 14:37:36;;;;;;;2.65;1.20;;;11.30;96.10;;;;;;4931763;29;20034;-96
2021/11/20 14:40:11;;;;;;;1.50;1.10;;;11.40;96.40;;;;;;4929942;29;20039;-95
2021/11/20 14:42:45;;;;;;;8.27;1.55;;;11.40;96.50;;;;;;4927689;29;20028;-96
2021/11/20 14:45:18;;;;;;;3.72;1.30;;;11.30;96.70;;;;;;4932467;29;20040;-96
2021/11/20 14:47:53;;;;;;;7.43;1.17;;;11.30;96.80;;;;;;4919320;29;20038;-95
2021/11/20 14:50:23;;;;;;;4.60;1.65;;;11.40;97.30;;;;;;4922692;29;20063;-95
2021/11/20 14:53:20;;;;;;;2.03;1.15;;;11.40;97.50;;;;;;4926045;29;20031;-96
2021/11/20 14:55:54;;;;;;;2.67;1.00;;;11.40;97.60;;;;;;4923518;29;20054;-96
2021/11/20 14:58:22;;;;;;;2.17;1.13;;;11.40;97.80;;;;;;4925105;29;20040;-96
2021/11/20 15:00:54;;;;;;;3.03;1.13;;;11.40;97.90;;;;;;4928070;29;20126;-96
2021/11/20 15:03:20;;;;;;;4.25;1.30;;;11.50;98.10;;;;;;4933259;29;20093;-96
2021/11/20 15:05:46;;;;;;;7.32;2.55;;;11.50;98.30;;;;;;4927289;29;20097;-95
2021/11/20 15:08:14;;;;;;;5.80;1.80;;;11.50;98.60;;;;;;4950102;29;20028;-96
2021/11/20 15:11:35;;;;;;;3.72;1.58;;;11.50;98.70;;;;;;4942247;29;20039;-96
2021/11/20 15:14:16;;;;;;;;;;;11.60;99.30;;;;;;4957310;28;20119;-96
2021/11/20 15:16:45;;;;;;;5.03;1.40;;;11.60;99.40;;;;;;5063442;23;19930;-96
2021/11/20 15:19:18;;;;;;;3.63;1.40;;;11.60;99.30;;;;;;4995988;28;20079;-96
2021/11/20 15:21:48;;;;;;;2.08;1.10;;;11.50;99.60;;;;;;4994407;28;20046;-96
2021/11/20 15:24:18;;;;;;;1.52;0.90;;;11.50;99.90;;;;;;4989958;28;20026;-96
2021/11/20 15:26:48;;;;;;;5.85;1.30;;;11.50;99.90;;;;;;5017831;28;20033;-96
2021/11/20 15:29:13;;;;;;;2.78;1.17;;;11.50;99.90;;;;;;4989410;28;20041;-96
2021/11/20 15:31:42;;;;;;;4.53;2.08;;;11.40;99.90;;;;;;4990738;28;20050;-95
2021/11/20 15:34:09;;;;;;;5.85;1.10;;;11.40;99.90;;;;;;4991656;28;20018;-95
2021/11/20 15:36:38;;;;;;;4.75;1.42;;;11.40;99.90;;;;;;5007954;28;20023;-96
2021/11/20 15:39:06;;;;;;;5.45;1.70;;;11.40;99.90;;;;;;4993439;28;20022;-95
2021/11/20 15:41:44;;;;;;;5.18;1.33;;;11.30;99.90;;;;;;4991291;28;20053;-96
2021/11/20 15:44:10;;;;;;;5.57;1.30;;;11.20;99.90;;;;;;5001483;28;20089;-96
2021/11/20 15:46:38;;;;;;;4.38;1.40;;;11.20;99.90;;;;;;5010342;28;20014;-95
2021/11/20 15:49:08;;;;;;;2.45;1.20;;;11.20;99.90;;;;;;4997419;28;20007;-95